createdAt,value
2017-12-23T00:00:22.299Z,99.90
2017-12-23T00:02:49.892Z,99.90
2017-12-23T00:05:17.522Z,99.90
2017-12-23T00:07:45.136Z,99.90
2017-12-23T00:10:12.749Z,99.90
2017-12-23T00:12:40.346Z,99.90
2017-12-23T00:15:07.972Z,99.90
2017-12-23T00:17:35.576Z,99.90
2017-12-23T00:20:03.179Z,99.90
2017-12-23T00:22:30.813Z,99.90
2017-12-23T00:24:58.452Z,99.90
2017-12-23T00:27:26.044Z,99.90
2017-12-23T00:29:53.625Z,99.90
2017-12-23T00:32:21.254Z,99.90
2017-12-23T00:34:48.842Z,99.90
2017-12-23T00:37:16.469Z,99.90
2017-12-23T00:39:44.053Z,99.90
2017-12-23T00:42:11.678Z,99.90
2017-12-23T00:44:39.256Z,99.90
2017-12-23T00:47:06.880Z,99.90
2017-12-23T00:49:34.522Z,99.90
2017-12-23T00:52:02.108Z,99.90
2017-12-23T00:54:29.740Z,99.90
2017-12-23T00:56:57.327Z,99.90
2017-12-23T00:59:24.918Z,99.90
2017-12-23T01:01:52.536Z,99.90
2017-12-23T01:04:20.927Z,99.90
2017-12-23T01:06:49.279Z,99.90
2017-12-23T01:09:16.880Z,99.90
2017-12-23T01:11:44.501Z,99.90
2017-12-23T01:14:12.133Z,99.90
2017-12-23T01:16:39.778Z,99.90
2017-12-23T01:19:08.224Z,99.90
2017-12-23T01:21:35.804Z,99.90
2017-12-23T01:24:03.433Z,99.90
2017-12-23T01:26:31.057Z,99.90
2017-12-23T01:28:58.680Z,99.90
2017-12-23T01:31:26.269Z,99.90
2017-12-23T01:33:53.892Z,99.90
2017-12-23T01:36:21.481Z,99.90
2017-12-23T01:38:49.113Z,99.90
2017-12-23T01:41:16.696Z,99.90
2017-12-23T01:43:44.331Z,99.90
2017-12-23T01:46:11.919Z,99.90
2017-12-23T01:48:39.508Z,99.90
2017-12-23T01:51:07.134Z,99.90
2017-12-23T01:53:34.723Z,99.90
2017-12-23T01:56:02.346Z,99.90
2017-12-23T01:58:29.969Z,99.90
2017-12-23T02:00:57.588Z,99.90
2017-12-23T02:03:25.174Z,99.90
2017-12-23T02:05:52.800Z,99.90
2017-12-23T02:08:20.387Z,99.90
2017-12-23T02:10:47.975Z,99.90
2017-12-23T02:13:15.622Z,99.90
2017-12-23T02:15:43.204Z,99.90
2017-12-23T02:18:10.786Z,99.90
2017-12-23T02:20:38.407Z,99.90
2017-12-23T02:23:05.985Z,99.90
2017-12-23T02:25:33.608Z,99.90
2017-12-23T02:28:01.188Z,99.90
2017-12-23T02:30:28.816Z,99.90
2017-12-23T02:32:56.401Z,99.90
2017-12-23T02:35:24.025Z,99.90
2017-12-23T02:37:51.608Z,99.90
2017-12-23T02:40:19.222Z,99.90
2017-12-23T02:42:46.806Z,99.90
2017-12-23T02:45:14.445Z,99.90
2017-12-23T02:47:42.038Z,99.90
2017-12-23T02:50:09.624Z,99.90
2017-12-23T02:52:38.034Z,99.90
2017-12-23T02:55:05.618Z,99.90
2017-12-23T02:57:33.365Z,99.90
2017-12-23T03:00:00.940Z,99.90
2017-12-23T03:02:28.568Z,99.90
2017-12-23T03:04:56.152Z,99.90
2017-12-23T03:07:23.771Z,99.90
2017-12-23T03:09:51.391Z,99.90
2017-12-23T03:12:19.016Z,99.90
2017-12-23T03:14:46.599Z,99.90
2017-12-23T03:17:14.227Z,99.90
2017-12-23T03:19:41.814Z,99.90
2017-12-23T03:22:09.391Z,99.90
2017-12-23T03:24:37.003Z,99.90
2017-12-23T03:27:04.597Z,99.90
2017-12-23T03:29:32.226Z,99.90
2017-12-23T03:31:59.819Z,99.90
2017-12-23T03:34:27.406Z,99.90
2017-12-23T03:36:55.061Z,99.90
2017-12-23T03:39:22.643Z,99.90
2017-12-23T03:41:50.262Z,99.90
2017-12-23T03:44:17.852Z,99.90
2017-12-23T03:46:45.434Z,99.90
2017-12-23T03:49:13.059Z,99.90
2017-12-23T03:51:40.640Z,99.90
2017-12-23T03:54:08.253Z,99.90
2017-12-23T03:56:35.830Z,99.90
2017-12-23T03:59:03.448Z,99.90
2017-12-23T04:01:31.020Z,99.90
2017-12-23T04:03:58.668Z,99.90
2017-12-23T04:06:26.283Z,99.90
2017-12-23T04:08:53.897Z,99.90
2017-12-23T04:11:21.514Z,99.90
2017-12-23T04:13:49.091Z,99.90
2017-12-23T04:16:16.720Z,99.90
2017-12-23T04:18:44.307Z,99.90
2017-12-23T04:21:11.923Z,99.90
2017-12-23T04:23:39.552Z,99.90
2017-12-23T04:26:07.140Z,99.90
2017-12-23T04:28:34.799Z,99.90
2017-12-23T04:31:02.371Z,99.90
2017-12-23T04:33:29.976Z,99.90
2017-12-23T04:35:57.555Z,99.90
2017-12-23T04:38:25.184Z,99.90
2017-12-23T04:40:52.765Z,99.90
2017-12-23T04:43:20.364Z,99.90
2017-12-23T04:45:48.034Z,99.90
2017-12-23T04:48:15.657Z,99.90
2017-12-23T04:50:43.248Z,99.90
2017-12-23T04:53:10.868Z,99.90
2017-12-23T04:55:38.489Z,99.90
2017-12-23T04:58:06.075Z,99.90
2017-12-23T05:00:33.720Z,99.90
2017-12-23T05:03:01.300Z,99.90
2017-12-23T05:05:28.888Z,99.90
2017-12-23T05:07:56.523Z,99.90
2017-12-23T05:10:24.106Z,99.90
2017-12-23T05:12:51.742Z,99.90
2017-12-23T05:15:19.324Z,99.90
2017-12-23T05:17:46.910Z,99.90
2017-12-23T05:20:14.539Z,99.90
2017-12-23T05:22:42.168Z,99.90
2017-12-23T05:25:09.791Z,99.90
2017-12-23T05:27:37.380Z,99.90
2017-12-23T05:30:05.010Z,99.90
2017-12-23T05:32:32.688Z,99.90
2017-12-23T05:35:00.276Z,99.90
2017-12-23T05:37:27.896Z,99.90
2017-12-23T05:39:55.531Z,99.90
2017-12-23T05:42:23.119Z,99.90
2017-12-23T05:44:50.744Z,99.90
2017-12-23T05:47:18.325Z,99.90
2017-12-23T05:49:45.955Z,99.90
2017-12-23T05:52:13.537Z,99.90
2017-12-23T05:54:41.162Z,99.90
2017-12-23T05:57:08.747Z,99.90
2017-12-23T05:59:36.388Z,99.90
2017-12-23T06:02:04.011Z,99.90
2017-12-23T06:04:31.629Z,99.90
2017-12-23T06:06:59.251Z,99.90
2017-12-23T06:09:26.864Z,99.90
2017-12-23T06:11:54.456Z,99.90
2017-12-23T06:14:22.142Z,99.90
2017-12-23T06:16:49.729Z,99.90
2017-12-23T06:19:17.413Z,99.90
2017-12-23T06:21:45.241Z,99.90
2017-12-23T06:24:12.877Z,99.90
2017-12-23T06:26:40.506Z,99.90
2017-12-23T06:29:08.143Z,99.90
2017-12-23T06:31:35.726Z,99.90
2017-12-23T06:34:03.354Z,99.90
2017-12-23T06:36:30.974Z,99.90
2017-12-23T06:38:58.579Z,99.90
2017-12-23T06:41:26.207Z,99.90
2017-12-23T06:43:53.783Z,99.90
2017-12-23T06:46:21.408Z,99.90
2017-12-23T06:48:49.030Z,99.90
2017-12-23T06:51:16.605Z,99.90
2017-12-23T06:53:44.342Z,99.90
2017-12-23T06:56:11.997Z,99.90
2017-12-23T06:58:39.693Z,99.90
2017-12-23T07:01:07.281Z,99.90
2017-12-23T07:03:34.879Z,99.80
2017-12-23T07:06:02.496Z,99.80
2017-12-23T07:08:30.072Z,99.60
2017-12-23T07:10:57.704Z,99.50
2017-12-23T07:13:25.385Z,99.20
2017-12-23T07:15:52.964Z,99.10
2017-12-23T07:18:20.563Z,99.10
2017-12-23T07:20:48.184Z,99.10
2017-12-23T07:23:15.849Z,99.00
2017-12-23T07:25:44.313Z,98.80
2017-12-23T07:28:11.924Z,98.80
2017-12-23T07:30:39.511Z,98.70
2017-12-23T07:33:07.154Z,98.70
2017-12-23T07:35:34.772Z,98.60
2017-12-23T07:38:02.352Z,98.50
2017-12-23T07:40:29.983Z,98.50
2017-12-23T07:42:57.564Z,98.50
2017-12-23T07:45:25.232Z,98.40
2017-12-23T07:47:52.990Z,98.40
2017-12-23T07:50:20.583Z,98.40
2017-12-23T07:52:48.460Z,98.40
2017-12-23T07:55:16.529Z,98.40
2017-12-23T07:57:46.384Z,98.40
2017-12-23T08:00:13.999Z,98.40
2017-12-23T08:02:41.662Z,98.40
2017-12-23T08:05:09.284Z,98.40
2017-12-23T08:07:40.401Z,98.50
2017-12-23T08:10:08.024Z,98.40
2017-12-23T08:12:35.643Z,98.40
2017-12-23T08:15:03.293Z,98.50
2017-12-23T08:17:30.928Z,98.60
2017-12-23T08:19:58.502Z,98.60
2017-12-23T08:22:26.192Z,98.70
2017-12-23T08:24:54.557Z,98.80
2017-12-23T08:27:22.175Z,98.80
2017-12-23T08:29:49.772Z,98.80
2017-12-23T08:32:17.399Z,98.80
2017-12-23T08:34:45.042Z,98.90
2017-12-23T08:37:13.396Z,99.10
2017-12-23T08:39:41.061Z,99.10
2017-12-23T08:42:08.668Z,99.20
2017-12-23T08:44:36.271Z,99.30
2017-12-23T08:47:03.920Z,99.40
2017-12-23T08:49:31.523Z,99.50
2017-12-23T08:51:59.164Z,99.60
2017-12-23T08:54:27.564Z,99.50
2017-12-23T08:56:55.189Z,99.50
2017-12-23T08:59:22.828Z,99.40
2017-12-23T09:01:50.503Z,99.40
2017-12-23T09:04:18.104Z,99.30
2017-12-23T09:06:45.854Z,99.30
2017-12-23T09:09:13.447Z,99.40
2017-12-23T09:11:41.861Z,99.30
2017-12-23T09:14:09.477Z,99.20
2017-12-23T09:16:37.055Z,99.20
2017-12-23T09:19:04.679Z,99.30
2017-12-23T09:21:32.273Z,99.20
2017-12-23T09:24:00.625Z,99.20
2017-12-23T09:26:28.681Z,99.20
2017-12-23T09:28:56.279Z,99.00
2017-12-23T09:31:23.903Z,98.90
2017-12-23T09:33:51.518Z,98.90
2017-12-23T09:36:19.143Z,98.90
2017-12-23T09:38:46.835Z,98.80
2017-12-23T09:41:14.483Z,98.70
2017-12-23T09:43:42.069Z,98.50
2017-12-23T09:46:09.688Z,98.50
2017-12-23T09:48:37.306Z,98.50
2017-12-23T09:51:05.016Z,98.40
2017-12-23T09:53:35.359Z,98.40
2017-12-23T09:56:03.749Z,98.50
2017-12-23T09:58:32.153Z,98.40
2017-12-23T10:00:59.769Z,98.40
2017-12-23T10:03:27.390Z,98.50
2017-12-23T10:05:54.969Z,98.40
2017-12-23T10:08:22.550Z,98.40
2017-12-23T10:10:50.186Z,98.40
2017-12-23T10:13:17.876Z,98.40
2017-12-23T10:15:45.500Z,98.40
2017-12-23T10:18:13.086Z,98.40
2017-12-23T10:20:40.721Z,98.50
2017-12-23T10:23:08.314Z,98.50
2017-12-23T10:25:36.309Z,98.50
2017-12-23T10:28:04.651Z,98.60
2017-12-23T10:30:32.289Z,98.60
2017-12-23T10:32:59.923Z,98.70
2017-12-23T10:35:27.502Z,98.70
2017-12-23T10:37:55.128Z,98.70
2017-12-23T10:40:23.487Z,98.70
2017-12-23T10:42:51.174Z,98.60
2017-12-23T10:45:18.761Z,98.60
2017-12-23T10:47:46.341Z,98.60
2017-12-23T10:50:13.976Z,98.50
2017-12-23T10:52:41.557Z,98.50
2017-12-23T10:55:09.168Z,98.50
2017-12-23T10:57:36.803Z,98.50
2017-12-23T11:00:04.418Z,98.40
2017-12-23T11:02:32.092Z,98.40
2017-12-23T11:04:59.781Z,98.40
2017-12-23T11:07:27.369Z,98.30
2017-12-23T11:09:55.080Z,98.30
2017-12-23T11:12:22.733Z,98.40
2017-12-23T11:14:50.381Z,98.60
2017-12-23T11:17:18.804Z,98.40
2017-12-23T11:19:46.410Z,98.30
2017-12-23T11:22:14.039Z,98.40
2017-12-23T11:24:41.621Z,98.50
2017-12-23T11:27:11.144Z,98.50
2017-12-23T11:29:38.889Z,98.60
2017-12-23T11:32:06.463Z,98.60
2017-12-23T11:34:34.086Z,98.40
2017-12-23T11:37:01.991Z,98.30
2017-12-23T11:39:29.597Z,98.20
2017-12-23T11:41:57.233Z,98.40
2017-12-23T11:44:24.826Z,98.30
2017-12-23T11:46:52.460Z,98.40
2017-12-23T11:49:20.075Z,98.30
2017-12-23T11:51:47.651Z,98.30
2017-12-23T11:54:15.293Z,98.20
2017-12-23T11:56:42.880Z,98.30
2017-12-23T11:59:10.573Z,98.20
2017-12-23T12:01:38.265Z,98.20
2017-12-23T12:04:05.844Z,98.00
2017-12-23T12:06:33.494Z,98.00
2017-12-23T12:09:01.091Z,98.00
2017-12-23T12:11:28.760Z,97.90
2017-12-23T12:13:56.400Z,97.80
2017-12-23T12:16:23.984Z,97.80
2017-12-23T12:18:53.082Z,97.80
2017-12-23T12:21:20.726Z,97.80
2017-12-23T12:23:48.307Z,97.80
2017-12-23T12:26:15.892Z,97.90
2017-12-23T12:28:43.504Z,97.90
2017-12-23T12:31:11.095Z,97.90
2017-12-23T12:33:39.497Z,97.90
2017-12-23T12:36:07.136Z,97.90
2017-12-23T12:38:34.718Z,97.90
2017-12-23T12:41:02.406Z,98.10
2017-12-23T12:43:30.032Z,98.10
2017-12-23T12:45:57.651Z,98.00
2017-12-23T12:48:25.303Z,98.00
2017-12-23T12:50:52.885Z,98.00
2017-12-23T12:53:20.506Z,98.10
2017-12-23T12:55:48.132Z,98.00
2017-12-23T12:58:16.498Z,98.10
2017-12-23T13:00:44.157Z,98.10
2017-12-23T13:03:11.743Z,98.10
2017-12-23T13:05:40.144Z,98.20
2017-12-23T13:08:07.809Z,98.10
2017-12-23T13:10:35.388Z,98.20
2017-12-23T13:13:03.009Z,98.20
2017-12-23T13:15:30.596Z,98.30
2017-12-23T13:17:58.245Z,98.20
2017-12-23T13:20:25.838Z,98.30
2017-12-23T13:22:53.481Z,98.20
2017-12-23T13:25:21.071Z,98.20
2017-12-23T13:27:48.686Z,98.20
2017-12-23T13:30:16.309Z,98.30
2017-12-23T13:32:43.912Z,98.20
2017-12-23T13:35:11.506Z,98.20
2017-12-23T13:37:39.148Z,98.20
2017-12-23T13:40:06.766Z,98.10
2017-12-23T13:42:34.384Z,98.10
2017-12-23T13:45:02.010Z,98.20
2017-12-23T13:47:29.682Z,98.20
2017-12-23T13:49:57.319Z,98.20
2017-12-23T13:52:24.915Z,98.20
2017-12-23T13:54:52.541Z,98.20
2017-12-23T13:57:20.146Z,98.20
2017-12-23T13:59:47.769Z,98.20
2017-12-23T14:02:15.357Z,98.30
2017-12-23T14:04:42.973Z,98.30
2017-12-23T14:07:10.552Z,98.30
2017-12-23T14:09:38.942Z,98.30
2017-12-23T14:12:07.308Z,98.30
2017-12-23T14:14:34.955Z,98.30
2017-12-23T14:17:02.536Z,98.30
2017-12-23T14:19:30.875Z,98.30
2017-12-23T14:21:58.521Z,98.30
2017-12-23T14:24:26.154Z,98.30
2017-12-23T14:26:54.546Z,98.30
2017-12-23T14:29:22.901Z,98.40
2017-12-23T14:31:51.322Z,98.40
2017-12-23T14:34:18.946Z,98.40
2017-12-23T14:36:46.519Z,98.50
2017-12-23T14:39:14.148Z,98.50
2017-12-23T14:41:41.731Z,98.50
2017-12-23T14:44:10.117Z,98.60
2017-12-23T14:46:38.464Z,98.60
2017-12-23T14:49:06.088Z,98.60
2017-12-23T14:51:33.716Z,98.60
2017-12-23T14:54:02.058Z,98.80
2017-12-23T14:56:30.439Z,98.90
2017-12-23T14:58:58.086Z,98.80
2017-12-23T15:01:25.666Z,99.00
2017-12-23T15:03:53.236Z,99.10
2017-12-23T15:06:20.847Z,99.30
2017-12-23T15:08:48.496Z,99.40
2017-12-23T15:11:16.098Z,99.50
2017-12-23T15:13:43.719Z,99.60
2017-12-23T15:16:11.349Z,99.60
2017-12-23T15:18:38.950Z,99.60
2017-12-23T15:21:06.590Z,99.60
2017-12-23T15:23:34.963Z,99.50
2017-12-23T15:26:03.324Z,99.60
2017-12-23T15:28:30.997Z,99.60
2017-12-23T15:30:58.735Z,99.60
2017-12-23T15:33:26.316Z,99.60
2017-12-23T15:35:53.952Z,99.60
2017-12-23T15:38:21.552Z,99.50
2017-12-23T15:40:49.922Z,99.40
2017-12-23T15:43:18.407Z,99.30
2017-12-23T15:45:46.091Z,99.40
2017-12-23T15:48:14.421Z,99.40
2017-12-23T15:50:42.035Z,99.40
2017-12-23T15:53:09.627Z,99.40
2017-12-23T15:55:37.241Z,99.30
2017-12-23T15:58:04.831Z,99.20
2017-12-23T16:00:32.455Z,99.10
2017-12-23T16:03:00.068Z,99.10
2017-12-23T16:05:27.747Z,99.10
2017-12-23T16:07:55.384Z,99.00
2017-12-23T16:10:23.018Z,99.00
2017-12-23T16:12:50.648Z,98.80
2017-12-23T16:15:18.235Z,98.70
2017-12-23T16:17:45.865Z,98.70
2017-12-23T16:20:13.514Z,98.70
2017-12-23T16:22:41.134Z,98.70
2017-12-23T16:25:08.731Z,98.70
2017-12-23T16:27:36.355Z,98.70
2017-12-23T16:30:03.943Z,98.70
2017-12-23T16:32:31.565Z,98.60
2017-12-23T16:34:59.143Z,98.60
2017-12-23T16:37:28.702Z,98.70
2017-12-23T16:39:56.325Z,98.70
2017-12-23T16:42:23.953Z,98.70
2017-12-23T16:44:51.583Z,98.60
2017-12-23T16:47:19.171Z,98.70
2017-12-23T16:49:46.792Z,98.70
2017-12-23T16:52:14.454Z,98.70
2017-12-23T16:54:42.072Z,98.60
2017-12-23T16:57:09.712Z,98.60
2017-12-23T16:59:37.301Z,98.60
2017-12-23T17:02:04.939Z,98.60
2017-12-23T17:04:32.526Z,98.60
2017-12-23T17:07:00.176Z,98.60
2017-12-23T17:09:28.536Z,98.60
2017-12-23T17:11:56.223Z,98.50
2017-12-23T17:14:23.847Z,98.60
2017-12-23T17:16:51.512Z,98.60
2017-12-23T17:19:19.147Z,98.60
2017-12-23T17:21:46.731Z,98.50
2017-12-23T17:24:14.358Z,98.50
2017-12-23T17:26:41.946Z,98.50
2017-12-23T17:29:21.421Z,98.50
2017-12-23T17:31:49.885Z,98.50
2017-12-23T17:34:17.471Z,98.50
2017-12-23T17:36:45.130Z,98.50
2017-12-23T17:39:12.737Z,98.50
2017-12-23T17:41:40.339Z,98.50
2017-12-23T17:44:07.995Z,98.40
2017-12-23T17:46:35.582Z,98.40
2017-12-23T17:49:03.213Z,98.40
2017-12-23T17:51:30.804Z,98.30
2017-12-23T17:53:58.379Z,98.30
2017-12-23T17:56:26.003Z,98.30
2017-12-23T17:58:53.653Z,98.30
2017-12-23T18:01:21.317Z,98.30
2017-12-23T18:03:48.914Z,98.40
2017-12-23T18:06:17.444Z,98.50
2017-12-23T18:08:45.032Z,98.50
2017-12-23T18:11:12.688Z,98.50
2017-12-23T18:13:40.366Z,98.40
2017-12-23T18:16:07.948Z,98.40
2017-12-23T18:18:35.679Z,98.40
2017-12-23T18:21:03.269Z,98.50
2017-12-23T18:23:31.699Z,98.50
2017-12-23T18:25:59.336Z,98.40
2017-12-23T18:28:26.926Z,98.50
2017-12-23T18:30:54.646Z,98.50
2017-12-23T18:33:22.263Z,98.50
2017-12-23T18:35:49.888Z,98.50
2017-12-23T18:38:17.528Z,98.50
2017-12-23T18:40:45.107Z,98.50
2017-12-23T18:43:12.729Z,98.50
2017-12-23T18:45:40.373Z,98.50
2017-12-23T18:48:07.999Z,98.50
2017-12-23T18:50:35.595Z,98.50
2017-12-23T18:53:03.220Z,98.50
2017-12-23T18:55:30.807Z,98.50
2017-12-23T18:57:58.392Z,98.50
2017-12-23T19:00:26.034Z,98.50
2017-12-23T19:02:53.624Z,98.40
2017-12-23T19:05:21.205Z,98.40
2017-12-23T19:07:48.827Z,98.40
2017-12-23T19:10:16.505Z,98.30
2017-12-23T19:12:44.152Z,98.30
2017-12-23T19:15:11.787Z,98.40
2017-12-23T19:17:39.368Z,98.40
2017-12-23T19:20:06.949Z,98.40
2017-12-23T19:22:34.581Z,98.40
2017-12-23T19:25:02.174Z,98.40
2017-12-23T19:27:29.753Z,98.40
2017-12-23T19:29:57.410Z,98.50
2017-12-23T19:32:25.023Z,98.40
2017-12-23T19:34:52.603Z,98.40
2017-12-23T19:37:20.230Z,98.40
2017-12-23T19:39:47.834Z,98.50
2017-12-23T19:42:15.461Z,98.50
2017-12-23T19:44:43.065Z,98.50
2017-12-23T19:47:10.754Z,98.50
2017-12-23T19:49:39.149Z,98.50
2017-12-23T19:52:06.744Z,98.50
2017-12-23T19:54:34.858Z,98.50
2017-12-23T19:57:02.507Z,98.50
2017-12-23T19:59:30.187Z,98.50
2017-12-23T20:01:58.594Z,98.80
2017-12-23T20:04:26.260Z,98.50
2017-12-23T20:06:53.908Z,98.50
2017-12-23T20:09:21.539Z,98.50
2017-12-23T20:11:49.148Z,98.50
2017-12-23T20:14:16.776Z,98.50
2017-12-23T20:16:45.132Z,98.50
2017-12-23T20:19:12.858Z,98.50
2017-12-23T20:21:40.441Z,98.50
2017-12-23T20:24:08.059Z,98.50
2017-12-23T20:26:35.630Z,98.40
2017-12-23T20:29:03.283Z,98.40
2017-12-23T20:31:30.914Z,98.40
2017-12-23T20:33:58.492Z,98.50
2017-12-23T20:36:26.853Z,98.50
2017-12-23T20:38:54.469Z,98.50
2017-12-23T20:43:55.974Z,98.50
2017-12-23T20:46:23.550Z,98.60
2017-12-23T20:48:51.934Z,98.70
2017-12-23T20:51:20.277Z,98.70
2017-12-23T20:53:47.904Z,98.70
2017-12-23T20:56:15.485Z,98.70
2017-12-23T20:58:43.064Z,99.00
2017-12-23T21:01:10.721Z,98.70
2017-12-23T21:03:38.312Z,98.70
2017-12-23T21:06:05.925Z,98.70
2017-12-23T21:08:33.509Z,98.70
2017-12-23T21:11:01.141Z,98.80
2017-12-23T21:13:28.749Z,98.80
2017-12-23T21:15:56.322Z,98.80
2017-12-23T21:18:23.946Z,98.80
2017-12-23T21:20:51.595Z,98.80
2017-12-23T21:23:19.178Z,98.80
2017-12-23T21:25:46.758Z,98.80
2017-12-23T21:28:14.378Z,98.80
2017-12-23T21:30:41.956Z,98.80
2017-12-23T21:33:09.663Z,98.80
2017-12-23T21:35:37.282Z,98.80
2017-12-23T21:38:04.946Z,98.80
2017-12-23T21:40:32.563Z,98.70
2017-12-23T21:43:00.379Z,98.50
2017-12-23T21:45:27.977Z,98.40
2017-12-23T21:47:55.699Z,98.50
2017-12-23T21:50:23.332Z,98.50
2017-12-23T21:52:51.064Z,98.50
2017-12-23T21:55:19.424Z,98.60
2017-12-23T21:57:47.051Z,98.60
2017-12-23T22:00:14.649Z,98.60
2017-12-23T22:02:42.477Z,98.50
2017-12-23T22:05:10.104Z,98.60
2017-12-23T22:07:38.456Z,98.60
2017-12-23T22:10:06.092Z,98.60
2017-12-23T22:12:33.723Z,98.60
2017-12-23T22:15:01.317Z,98.50
2017-12-23T22:17:28.902Z,98.50
2017-12-23T22:19:56.582Z,98.60
2017-12-23T22:22:24.964Z,98.50
2017-12-23T22:24:52.592Z,98.50
2017-12-23T22:27:20.476Z,98.40
2017-12-23T22:29:48.103Z,98.40
2017-12-23T22:32:15.687Z,98.30
2017-12-23T22:34:43.329Z,98.30
2017-12-23T22:37:10.943Z,98.20
2017-12-23T22:39:38.882Z,98.20
2017-12-23T22:42:06.525Z,98.10
2017-12-23T22:44:34.154Z,98.10
2017-12-23T22:47:03.174Z,98.20
2017-12-23T22:49:31.847Z,98.10
2017-12-23T22:51:59.510Z,98.20
2017-12-23T22:54:27.152Z,98.20
2017-12-23T22:56:55.122Z,98.10
2017-12-23T22:59:22.755Z,98.10
2017-12-23T23:01:50.499Z,98.10
2017-12-23T23:04:18.217Z,98.10
2017-12-23T23:06:46.020Z,98.10
2017-12-23T23:09:13.882Z,98.00
2017-12-23T23:11:41.540Z,98.00
2017-12-23T23:14:09.514Z,98.00
2017-12-23T23:16:37.194Z,98.00
2017-12-23T23:19:05.663Z,98.00
2017-12-23T23:21:33.839Z,98.00
2017-12-23T23:24:01.715Z,98.00
2017-12-23T23:26:29.302Z,98.30
2017-12-23T23:28:57.049Z,98.00
2017-12-23T23:31:24.733Z,98.00
2017-12-23T23:33:53.119Z,98.10
2017-12-23T23:36:21.537Z,98.10
2017-12-23T23:38:49.619Z,98.10
2017-12-23T23:41:17.265Z,98.10
2017-12-23T23:43:44.910Z,98.10
2017-12-23T23:46:12.506Z,98.20
2017-12-23T23:48:40.153Z,98.20
2017-12-23T23:51:07.791Z,98.20
2017-12-23T23:53:36.143Z,98.20
2017-12-23T23:56:03.806Z,98.20
2017-12-23T23:58:31.433Z,98.20
